KNQX/NQX METAR and TAF weather

Enter ICAO airport designator
Station Type Date Time Source
KNQX METAR 2019/07/17 11:53 UTC NOAA

KNQX 171153Z 11011KT 10SM SCT025 SCT250 31/23 A3008 RMK AO2 SLP185 T03060233 10306 20294 53009 $


Station Type Date Time Source
KNQX Decoded METAR 2019/07/17 11:53 UTC NOAA

KEY WEST NAVAL AIR STATION, FL, United States (KNQX) 24-35N 81-41W 6M
Jul 17, 2019 - 07:53 AM EDT / 2019.07.17 1153 UTC
Wind: from the ESE (110 degrees) at 13 MPH (11 KT):0
Visibility: 10 mile(s):0
Sky conditions: partly cloudy
Temperature: 87.1 F (30.6 C)
Heat index: 95.4 F (35.2 C):1
Dew Point: 73.9 F (23.3 C)
Relative Humidity: 65%
Pressure (altimeter): 30.08 in. Hg (1018 hPa)
Pressure tendency: 0.03 inches (0.9 hPa) higher than three hours ago
ob: KNQX 171153Z 11011KT 10SM SCT025 SCT250 31/23 A3008 RMK AO2 SLP185 T03060233 10306 20294 53009
cycle: 12

Station Type Date Time Source
KNQX TAF 2019/07/17 07:06 UTC NOAA

TAF KNQX 1707/1807 11011KT 9999 VCSH FEW025 SCT250 QNH3000INS
FM171500 12009KT 9999 VCSH SCT025 BKN250 QNH2999INS AUTOMATED SENSOR METWATCH 1707 TIL 1710 T28/1709Z T33/1719Z FN00182

Example: see airport list